logo
Search for airport 
image banner adimage banner adimage banner ad
image banner ad

YCRN - Cranbourn

Located in Georgetown, Australia

ICAO - YCRN, IATA -

Data provided by Airmate  

General information

Coordinates: S41°9'41" E147°0'53"
Elevation is 345 feet MSL.
Magnetic variation is 14° East
View others Airports in Tasmania

Operational data

Special qualification required
Current time UTC:
Current local time:
Weather at : YMLT - Launceston ( 46 km )
METAR: YMLT 281930Z AUTO 33010KT 9999 // SCT012 10/10 Q1022 RF00.0/000.2
TAF: TAF YMLT 281716Z 2818/2918 34011KT 9999 FEW008 FM290100 34012KT 9999 FEW015 TEMPO 2818/2900 9999 BKN008 PROB30 2818/2823 2000 BR BKN001
View NOTAMs / SUP AIP / TFR affecting this airport [VIEW]
Communications frequencies: [VIEW]

Runways:

RWY identifierQFULength (ft)Width (ft)SurfaceLDA (ft)
14R2231102UNK
32L2231102UNK
14L223156UNK
32R223156UNK
31327°211756GRAS
13147°211756GRAS

Airport contact information

Address: Georgetown Australia

Satellite view of YCRN